^^
Saratoga-Weather Station Historical Data
Daily Summary for January 2, 2020 Units:  Metric    English   Both
Daily Weekly Monthly Yearly Custom
  High: Low: Average:
Temperature: 14 °C 8.8 °C 11.2 °C
Dew Point: 12.9 °C 7.1 °C 10.1 °C
Humidity: 97% 85% 93%
Wind Speed: 20.9km/h 0km/h 0.2km/h
Wind Gust: 38.6km/h - -
Wind- - West
Pressure: 1014.6 hPa 1008.5 hPa -
Precipitation: 6.6 mm    
Historical Graphs
 
 
Tabular Data for January 2, 2020
Time Temperature Dew Point Pressure Wind Wind Speed Wind Gust Humidity Rainfall Rate (Hourly) solar
00:03 9.1 °C 7.9 °C 1013.9 hPa Calm     92% 0.0 mm 0 W/m2
00:08 9.1 °C 7.9 °C 1013.9 hPa Calm     92% 0.0 mm 0 W/m2
00:13 9.2 °C 8 °C 1014.2 hPa Calm     92% 0.0 mm 0 W/m2
00:18 9.2 °C 8.1 °C 1014.2 hPa Calm     93% 0.0 mm 0 W/m2
00:23 9.2 °C 8.1 °C 1014.2 hPa Calm     93% 0.0 mm 0 W/m2
00:28 9.2 °C 8.1 °C 1014.2 hPa Calm     93% 0.0 mm 0 W/m2
00:33 9.2 °C 8.1 °C 1014.6 hPa Calm     93% 0.0 mm 0 W/m2
00:38 9.2 °C 8 °C 1014.2 hPa Calm     92% 0.0 mm 0 W/m2
00:43 9.2 °C 8 °C 1014.6 hPa Calm     92% 0.0 mm 0 W/m2
00:48 9.2 °C 8 °C 1014.6 hPa Calm     92% 0.0 mm 0 W/m2
00:53 9.2 °C 8.1 °C 1014.6 hPa Calm     93% 0.0 mm 0 W/m2
00:58 9.2 °C 8 °C 1014.6 hPa Calm     92% 0.0 mm 0 W/m2
01:03 9.1 °C 7.9 °C 1014.6 hPa Calm     92% 0.0 mm 0 W/m2
01:08 9.1 °C 7.9 °C 1014.6 hPa Calm     92% 0.0 mm 0 W/m2
01:13 9.1 °C 7.7 °C 1014.6 hPa Calm     91% 0.0 mm 0 W/m2
01:18 9.2 °C 7.8 °C 1014.6 hPa Calm     91% 0.0 mm 0 W/m2
01:23 9.1 °C 7.5 °C 1014.6 hPa Calm     90% 0.0 mm 0 W/m2
01:28 8.9 °C 7.3 °C 1014.6 hPa Calm     90% 0.0 mm 0 W/m2
01:33 8.8 °C 7.2 °C 1014.6 hPa Calm     90% 0.0 mm 0 W/m2
01:38 8.8 °C 7.1 °C 1014.6 hPa Calm   1.6 km/h 89% 0.0 mm 0 W/m2
01:43 8.9 °C 7.2 °C 1014.6 hPa Calm     89% 0.0 mm 0 W/m2
01:48 8.9 °C 7.2 °C 1014.6 hPa Calm   1.6 km/h 89% 0.0 mm 0 W/m2
01:53 8.8 °C 7.2 °C 1014.6 hPa Calm     90% 0.0 mm 0 W/m2
01:58 8.8 °C 7.2 °C 1014.6 hPa Calm     90% 0.0 mm 0 W/m2
02:03 8.8 °C 7.2 °C 1014.6 hPa Calm     90% 0.0 mm 0 W/m2
02:08 8.9 °C 7.5 °C 1014.6 hPa Calm     91% 0.0 mm 0 W/m2
02:13 9 °C 7.6 °C 1014.6 hPa Calm     91% 0.0 mm 0 W/m2
02:18 9.1 °C 7.5 °C 1014.6 hPa Calm     90% 0.0 mm 0 W/m2
02:23 8.9 °C 7.3 °C 1014.6 hPa Calm   1.6 km/h 90% 0.0 mm 0 W/m2
02:28 8.9 °C 7.5 °C 1014.6 hPa Calm     91% 0.0 mm 0 W/m2
02:34 8.8 °C 7.4 °C 1014.6 hPa Calm     91% 0.0 mm 0 W/m2
02:39 8.8 °C 7.4 °C 1014.6 hPa Calm     91% 0.0 mm 0 W/m2
02:44 8.8 °C 7.6 °C 1014.6 hPa Calm     92% 0.0 mm 0 W/m2
02:49 8.8 °C 7.6 °C 1014.6 hPa Calm     92% 0.0 mm 0 W/m2
02:54 8.8 °C 7.6 °C 1014.6 hPa Calm     92% 0.0 mm 0 W/m2
02:59 8.9 °C 7.7 °C 1014.6 hPa Calm     92% 0.0 mm 0 W/m2
03:04 8.9 °C 7.7 °C 1014.6 hPa Calm     92% 0.0 mm 0 W/m2
03:09 9 °C 7.8 °C 1014.6 hPa Calm     92% 0.0 mm 0 W/m2
03:14 9.1 °C 7.9 °C 1014.6 hPa Calm     92% 0.0 mm 0 W/m2
03:19 9.1 °C 7.9 °C 1014.6 hPa Calm     92% 0.0 mm 0 W/m2
03:24 9.1 °C 7.9 °C 1014.6 hPa Calm     92% 0.0 mm 0 W/m2
03:29 9.2 °C 8 °C 1014.6 hPa Calm     92% 0.0 mm 0 W/m2
03:34 9.2 °C 8.1 °C 1014.2 hPa Calm     93% 0.0 mm 0 W/m2
03:39 9.2 °C 8.1 °C 1014.2 hPa Calm     93% 0.0 mm 0 W/m2
03:44 9.2 °C 8.1 °C 1014.2 hPa Calm     93% 0.0 mm 0 W/m2
03:49 9.2 °C 8.1 °C 1014.2 hPa Calm     93% 0.0 mm 0 W/m2
03:54 9.2 °C 8.3 °C 1014.2 hPa Calm     94% 0.0 mm 0 W/m2
03:59 9.2 °C 8.3 °C 1014.2 hPa Calm     94% 0.2 mm 0 W/m2
04:04 9.2 °C 8.3 °C 1013.9 hPa Calm     94% 0.2 mm 0 W/m2
04:09 9.2 °C 8.3 °C 1013.9 hPa Calm     94% 0.5 mm 0 W/m2
04:14 9.1 °C 8.2 °C 1013.9 hPa Calm     94% 0.5 mm 0 W/m2
04:19 9.1 °C 8.2 °C 1013.9 hPa Calm     94% 0.5 mm 0 W/m2
04:24 8.9 °C 8.1 °C 1013.9 hPa Calm     95% 0.5 mm 0 W/m2
04:29 8.9 °C 8.1 °C 1013.5 hPa Calm     95% 0.5 mm 0 W/m2
04:34 8.8 °C 8 °C 1013.5 hPa Calm     95% 0.5 mm 0 W/m2
04:39 8.8 °C 8 °C 1013.5 hPa Calm     95% 0.5 mm 0 W/m2
04:44 8.8 °C 8 °C 1013.5 hPa Calm     95% 0.5 mm 0 W/m2
04:49 8.8 °C 8.2 °C 1013.2 hPa Calm     96% 0.5 mm 0 W/m2
04:54 8.8 °C 8.2 °C 1013.2 hPa Calm     96% 0.5 mm 0 W/m2
04:59 8.8 °C 8.2 °C 1013.2 hPa Calm     96% 0.5 mm 0 W/m2
05:04 9 °C 8.4 °C 1013.2 hPa Calm     96% 0.5 mm 0 W/m2
05:09 9.2 °C 8.6 °C 1013.2 hPa Calm     96% 0.5 mm 0 W/m2
05:14 9.4 °C 8.9 °C 1013.2 hPa Calm     97% 0.5 mm 0 W/m2
05:19 9.5 °C 8.9 °C 1012.9 hPa Calm     96% 0.5 mm 0 W/m2
05:24 9.6 °C 9 °C 1013.2 hPa Calm     96% 0.5 mm 0 W/m2
05:29 9.7 °C 9.2 °C 1012.9 hPa Calm     97% 0.5 mm 0 W/m2
05:34 9.7 °C 9.1 °C 1012.9 hPa Calm     96% 0.5 mm 0 W/m2
05:39 9.8 °C 9.2 °C 1012.9 hPa Calm     96% 0.5 mm 0 W/m2
05:44 9.8 °C 9.2 °C 1012.9 hPa Calm     96% 0.5 mm 0 W/m2
05:49 9.8 °C 9.2 °C 1012.9 hPa Calm     96% 0.5 mm 0 W/m2
05:54 9.8 °C 9.2 °C 1012.9 hPa Calm     96% 0.5 mm 0 W/m2
05:59 9.8 °C 9.2 °C 1012.9 hPa Calm     96% 0.5 mm 0 W/m2
06:04 9.9 °C 9.3 °C 1012.9 hPa Calm     96% 0.5 mm 0 W/m2
06:09 9.9 °C 9.3 °C 1012.5 hPa Calm     96% 0.5 mm 0 W/m2
06:14 9.9 °C 9.3 °C 1012.5 hPa Calm     96% 0.5 mm 0 W/m2
06:19 9.9 °C 9.3 °C 1012.5 hPa Calm     96% 0.5 mm 0 W/m2
06:24 9.9 °C 9.3 °C 1012.5 hPa Calm     96% 0.8 mm 0 W/m2
06:29 9.9 °C 9.3 °C 1012.5 hPa Calm     96% 0.8 mm 0 W/m2
06:34 10 °C 9.4 °C 1012.2 hPa Calm     96% 1.0 mm 0 W/m2
06:39 10 °C 9.4 °C 1012.2 hPa Calm     96% 1.3 mm 0 W/m2
06:44 10 °C 9.4 °C 1012.2 hPa Calm     96% 1.0 mm 0 W/m2
06:49 10 °C 9.4 °C 1011.9 hPa Calm     96% 1.0 mm 0 W/m2
06:54 9.9 °C 9.3 °C 1011.9 hPa Calm     96% 1.3 mm 0 W/m2
06:59 10 °C 9.4 °C 1011.9 hPa Calm     96% 1.0 mm 0 W/m2
07:05 10 °C 9.4 °C 1011.9 hPa Calm     96% 1.3 mm 0 W/m2
07:10 10 °C 9.4 °C 1011.9 hPa Calm     96% 1.0 mm 0 W/m2
07:15 10 °C 9.4 °C 1011.5 hPa Calm     96% 1.0 mm 0 W/m2
07:20 10 °C 9.4 °C 1011.5 hPa Calm     96% 1.0 mm 0 W/m2
07:25 10 °C 9.4 °C 1011.2 hPa Calm     96% 1.0 mm 0 W/m2
07:30 10 °C 9.4 °C 1011.2 hPa Calm     96% 1.0 mm 0 W/m2
07:35 10 °C 9.4 °C 1011.2 hPa Calm     96% 0.8 mm 0 W/m2
07:40 10 °C 9.4 °C 1010.8 hPa Calm     96% 0.5 mm 0 W/m2
07:45 10 °C 9.4 °C 1010.8 hPa Calm     96% 0.5 mm 0 W/m2
07:50 10.1 °C 9.5 °C 1010.8 hPa Calm     96% 0.5 mm 0 W/m2
07:55 10 °C 9.4 °C 1010.8 hPa Calm     96% 0.5 mm 0 W/m2
08:00 10 °C 9.4 °C 1010.8 hPa Calm     96% 0.5 mm 0 W/m2
08:05 10.1 °C 9.5 °C 1010.5 hPa Calm     96% 0.2 mm 0 W/m2
08:10 10.1 °C 9.5 °C 1010.5 hPa Calm     96% 0.5 mm 0 W/m2
08:15 10.1 °C 9.5 °C 1010.5 hPa Calm   1.6 km/h 96% 0.5 mm 0 W/m2
08:21 10.1 °C 9.5 °C 1010.5 hPa Calm     96% 0.5 mm 0 W/m2
08:26 10.1 °C 9.5 °C 1010.2 hPa Calm   1.6 km/h 96% 0.2 mm 5 W/m2
08:31 10.1 °C 9.3 °C 1010.5 hPa Calm     95% 0.5 mm 0 W/m2
08:36 10.1 °C 9.5 °C 1010.2 hPa Calm     96% 0.5 mm 5 W/m2
08:41 10.1 °C 9.5 °C 1010.2 hPa Calm     96% 0.5 mm 9 W/m2
08:46 10.1 °C 9.5 °C 1010.2 hPa Calm     96% 0.5 mm 9 W/m2
08:51 10.2 °C 9.6 °C 1010.2 hPa Calm     96% 0.8 mm 11 W/m2
08:56 10.2 °C 9.6 °C 1010.2 hPa Calm     96% 0.8 mm 11 W/m2
09:01 10.2 °C 9.6 °C 1009.8 hPa Calm     96% 1.0 mm 18 W/m2
09:06 10.3 °C 9.7 °C 1009.8 hPa Calm     96% 1.0 mm 25 W/m2
09:11 10.3 °C 9.7 °C 1009.8 hPa Calm     96% 0.8 mm 19 W/m2
09:16 10.3 °C 9.7 °C 1009.8 hPa Calm   1.6 km/h 96% 0.8 mm 12 W/m2
09:21 10.4 °C 9.8 °C 1009.5 hPa Calm     96% 0.8 mm 19 W/m2
09:26 10.4 °C 9.8 °C 1009.5 hPa Calm     96% 0.8 mm 21 W/m2
09:31 10.5 °C 9.9 °C 1009.5 hPa Calm     96% 0.5 mm 33 W/m2
09:36 10.6 °C 10 °C 1009.5 hPa Calm     96% 0.5 mm 26 W/m2
09:41 10.6 °C 10 °C 1009.5 hPa Calm     96% 0.5 mm 33 W/m2
09:46 10.7 °C 10.1 °C 1009.5 hPa Calm     96% 0.5 mm 28 W/m2
09:51 10.7 °C 10.1 °C 1009.5 hPa Calm     96% 0.5 mm 28 W/m2
09:56 10.7 °C 10.1 °C 1009.8 hPa Calm     96% 0.5 mm 30 W/m2
10:01 10.8 °C 10.2 °C 1009.8 hPa Calm   6.4 km/h 96% 0.2 mm 28 W/m2
10:06 10.8 °C 10.2 °C 1009.8 hPa Calm     96% 0.2 mm 40 W/m2
10:11 10.9 °C 10.3 °C 1009.8 hPa WNW 6.4 km/h 6.4 km/h 96% 0.2 mm 28 W/m2
10:16 10.9 °C 10.3 °C 1009.8 hPa Calm     96% 0.2 mm 35 W/m2
10:21 10.9 °C 10.3 °C 1009.8 hPa Calm     96% 0.2 mm 32 W/m2
10:26 11 °C 10.4 °C 1009.8 hPa Calm     96% 0.5 mm 39 W/m2
10:31 11.1 °C 10.5 °C 1009.8 hPa Calm     96% 0.2 mm 37 W/m2
10:36 11.1 °C 10.5 °C 1009.5 hPa Calm     96% 0.5 mm 47 W/m2
10:41 11.1 °C 10.5 °C 1009.8 hPa Calm     96% 0.5 mm 40 W/m2
10:46 11.2 °C 10.6 °C 1009.8 hPa Calm     96% 0.5 mm 44 W/m2
10:52 11.2 °C 10.6 °C 1009.5 hPa Calm     96% 0.5 mm 56 W/m2
10:57 11.2 °C 10.6 °C 1009.5 hPa Calm     96% 0.5 mm 72 W/m2
11:02 11.3 °C 10.7 °C 1009.5 hPa Calm     96% 0.8 mm 65 W/m2
11:07 11.3 °C 10.7 °C 1009.5 hPa Calm     96% 0.8 mm 53 W/m2
11:12 11.4 °C 10.8 °C 1009.1 hPa Calm     96% 0.8 mm 58 W/m2
11:17 11.4 °C 10.8 °C 1009.5 hPa Calm     96% 0.8 mm 76 W/m2
11:22 11.6 °C 11 °C 1009.1 hPa Calm     96% 0.8 mm 79 W/m2
11:27 11.7 °C 11.1 °C 1009.1 hPa Calm     96% 0.5 mm 74 W/m2
11:32 11.7 °C 11.1 °C 1009.1 hPa Calm     96% 0.5 mm 88 W/m2
11:37 11.8 °C 11.2 °C 1009.5 hPa Calm     96% 0.5 mm 77 W/m2
11:42 11.9 °C 11.3 °C 1009.5 hPa Calm     96% 0.5 mm 69 W/m2
11:47 11.9 °C 11.3 °C 1009.5 hPa Calm     96% 0.2 mm 62 W/m2
11:52 12 °C 11.4 °C 1009.5 hPa Calm     96% 0.2 mm 69 W/m2
11:57 12.1 °C 11.5 °C 1009.5 hPa Calm     96% 0.2 mm 63 W/m2
12:02 12.1 °C 11.5 °C 1009.1 hPa Calm     96% 0.0 mm 63 W/m2
12:07 12.2 °C 11.6 °C 1009.1 hPa Calm     96% 0.0 mm 83 W/m2
12:12 12.2 °C 11.6 °C 1008.8 hPa Calm     96% 0.0 mm 95 W/m2
12:17 12.3 °C 11.7 °C 1008.8 hPa Calm     96% 0.0 mm 116 W/m2
12:22 12.4 °C 11.8 °C 1008.8 hPa Calm     96% 0.0 mm 123 W/m2
12:27 12.5 °C 11.9 °C 1008.8 hPa Calm     96% 0.0 mm 114 W/m2
12:32 12.6 °C 12 °C 1008.5 hPa Calm     96% 0.0 mm 107 W/m2
12:37 12.7 °C 12.1 °C 1008.5 hPa Calm     96% 0.0 mm 146 W/m2
12:42 12.8 °C 12 °C 1009.1 hPa Calm   4.8 km/h 95% 0.0 mm 114 W/m2
12:47 12.8 °C 12 °C 1008.8 hPa Calm   11.3 km/h 95% 0.0 mm 93 W/m2
12:52 12.9 °C 12.1 °C 1008.8 hPa Calm     95% 0.0 mm 141 W/m2
12:57 13 °C 12.2 °C 1008.8 hPa West 20.9 km/h 20.9 km/h 95% 0.0 mm 111 W/m2
13:02 13 °C 12.2 °C 1008.8 hPa Calm   1.6 km/h 95% 0.0 mm 81 W/m2
13:07 13 °C 12.2 °C 1008.5 hPa Calm     95% 0.0 mm 102 W/m2
13:12 13.1 °C 12.3 °C 1009.1 hPa Calm   30.6 km/h 95% 0.0 mm 84 W/m2
13:17 13.1 °C 12.3 °C 1009.1 hPa Calm     95% 0.0 mm 63 W/m2
13:22 13.1 °C 12.3 °C 1009.1 hPa Calm     95% 0.0 mm 84 W/m2
13:27 13.1 °C 12.3 °C 1009.1 hPa Calm     95% 0.0 mm 91 W/m2
13:32 13.1 °C 12.3 °C 1009.1 hPa Calm   3.2 km/h 95% 0.0 mm 95 W/m2
13:37 13.2 °C 12.4 °C 1009.1 hPa Calm     95% 0.0 mm 109 W/m2
13:42 13.2 °C 12.4 °C 1009.1 hPa Calm   3.2 km/h 95% 0.0 mm 100 W/m2
13:47 13.3 °C 12.5 °C 1009.1 hPa Calm   9.7 km/h 95% 0.0 mm 83 W/m2
13:52 13.3 °C 12.5 °C 1009.1 hPa Calm     95% 0.0 mm 93 W/m2
13:57 13.4 °C 12.6 °C 1009.1 hPa Calm   4.8 km/h 95% 0.0 mm 114 W/m2
14:02 13.4 °C 12.6 °C 1009.1 hPa SW 7.9 km/h 8 km/h 95% 0.0 mm 105 W/m2
14:07 13.6 °C 12.8 °C 1009.1 hPa Calm   1.6 km/h 95% 0.0 mm 93 W/m2
14:12 13.6 °C 12.8 °C 1009.5 hPa Calm   6.4 km/h 95% 0.0 mm 91 W/m2
14:17 13.7 °C 12.8 °C 1009.8 hPa Calm     94% 0.0 mm 102 W/m2
14:22 13.7 °C 12.8 °C 1009.8 hPa Calm   29 km/h 94% 0.0 mm 62 W/m2
14:27 13.8 °C 12.9 °C 1010.2 hPa WNW 3.2 km/h 38.6 km/h 94% 0.0 mm 95 W/m2
14:32 13.8 °C 12.7 °C 1010.2 hPa WSW 1.4 km/h 1.6 km/h 93% 0.0 mm 72 W/m2
14:37 13.8 °C 12.7 °C 1010.2 hPa Calm   32.2 km/h 93% 0.0 mm 47 W/m2
14:42 13.9 °C 12.8 °C 1010.2 hPa Calm     93% 0.0 mm 84 W/m2
14:47 13.9 °C 12.8 °C 1010.2 hPa Calm   1.6 km/h 93% 0.0 mm 118 W/m2
14:52 13.9 °C 12.6 °C 1010.2 hPa Calm     92% 0.0 mm 86 W/m2
14:57 14 °C 12.7 °C 1009.8 hPa Calm   3.2 km/h 92% 0.0 mm 84 W/m2
15:02 14 °C 12.7 °C 1009.8 hPa Calm     92% 0.0 mm 84 W/m2
15:08 14 °C 12.7 °C 1010.2 hPa Calm   3.2 km/h 92% 0.0 mm 91 W/m2
15:13 14 °C 12.6 °C 1010.2 hPa Calm     91% 0.0 mm 91 W/m2
15:18 14 °C 12.6 °C 1010.2 hPa Calm     91% 0.0 mm 91 W/m2
15:23 14 °C 12.6 °C 1010.5 hPa Calm   20.9 km/h 91% 0.0 mm 56 W/m2
15:28 13.9 °C 12.6 °C 1010.5 hPa Calm     92% 0.0 mm 33 W/m2
15:33 13.8 °C 12.5 °C 1010.5 hPa Calm   20.9 km/h 92% 0.2 mm 26 W/m2
15:38 13.7 °C 12.6 °C 1010.5 hPa Calm   12.9 km/h 93% 0.5 mm 19 W/m2
15:43 13.5 °C 12.4 °C 1010.8 hPa Calm     93% 0.5 mm 26 W/m2
15:48 13.4 °C 12.5 °C 1010.5 hPa West 1.4 km/h 1.6 km/h 94% 0.5 mm 28 W/m2
15:53 13.5 °C 12.6 °C 1010.8 hPa Calm   3.2 km/h 94% 0.5 mm 33 W/m2
15:58 13.6 °C 12.7 °C 1010.8 hPa NW 1.4 km/h 12.9 km/h 94% 0.5 mm 33 W/m2
16:03 13.7 °C 12.6 °C 1010.8 hPa Calm     93% 0.5 mm 42 W/m2
16:08 13.7 °C 12.6 °C 1010.8 hPa Calm     93% 0.5 mm 32 W/m2
16:13 13.7 °C 12.4 °C 1010.8 hPa Calm   24.1 km/h 92% 0.5 mm 30 W/m2
16:18 13.8 °C 12.5 °C 1010.8 hPa Calm   4.8 km/h 92% 0.5 mm 42 W/m2
16:23 13.8 °C 12.4 °C 1011.2 hPa Calm   27.4 km/h 91% 0.5 mm 33 W/m2
16:28 13.8 °C 12.4 °C 1010.8 hPa Calm     91% 0.5 mm 26 W/m2
16:33 13.9 °C 12.3 °C 1011.2 hPa Calm   27.4 km/h 90% 0.2 mm 26 W/m2
16:38 13.9 °C 12.3 °C 1011.2 hPa Calm   1.6 km/h 90% 0.0 mm 33 W/m2
16:43 13.8 °C 12.2 °C 1011.2 hPa Calm   17.7 km/h 90% 0.0 mm 21 W/m2
16:49 13.8 °C 12.2 °C 1011.5 hPa Calm     90% 0.0 mm 16 W/m2
16:54 13.8 °C 12.2 °C 1011.5 hPa Calm     90% 0.0 mm 19 W/m2
16:59 13.9 °C 12.3 °C 1011.9 hPa Calm   1.6 km/h 90% 0.0 mm 12 W/m2
17:04 13.9 °C 12.1 °C 1011.9 hPa Calm     89% 0.0 mm 12 W/m2
17:09 13.9 °C 12.1 °C 1011.9 hPa Calm   9.7 km/h 89% 0.0 mm 11 W/m2
17:14 13.9 °C 11.9 °C 1011.9 hPa Calm     88% 0.0 mm 11 W/m2
17:19 13.8 °C 11.8 °C 1012.2 hPa Calm   1.6 km/h 88% 0.0 mm 7 W/m2
17:24 13.8 °C 11.8 °C 1011.9 hPa Calm   1.6 km/h 88% 0.0 mm 5 W/m2
17:29 13.8 °C 11.7 °C 1011.9 hPa Calm   3.2 km/h 87% 0.0 mm 0 W/m2
17:34 13.8 °C 11.3 °C 1012.2 hPa Calm   11.3 km/h 85% 0.0 mm 0 W/m2
17:39 13.8 °C 11.3 °C 1012.2 hPa Calm     85% 0.0 mm 0 W/m2
17:44 13.8 °C 11.3 °C 1012.2 hPa Calm     85% 0.0 mm 0 W/m2
17:49 13.7 °C 11.2 °C 1012.5 hPa Calm     85% 0.0 mm 0 W/m2
17:54 13.6 °C 11.1 °C 1012.5 hPa Calm     85% 0.0 mm 0 W/m2
17:59 13.6 °C 11.1 °C 1012.5 hPa West 16.3 km/h 16.1 km/h 85% 0.0 mm 0 W/m2
18:04 13.6 °C 11.1 °C 1012.5 hPa Calm   1.6 km/h 85% 0.0 mm 0 W/m2
18:09 13.4 °C 11.1 °C 1012.9 hPa Calm     86% 0.0 mm 0 W/m2
18:14 13.3 °C 11.2 °C 1012.9 hPa Calm     87% 0.0 mm 0 W/m2
18:19 13.3 °C 11.2 °C 1012.9 hPa Calm     87% 0.0 mm 0 W/m2
18:24 13.2 °C 11.1 °C 1013.2 hPa Calm     87% 0.0 mm 0 W/m2
18:29 13.2 °C 11.3 °C 1013.2 hPa Calm     88% 0.0 mm 0 W/m2
18:34 13.2 °C 11.3 °C 1013.2 hPa Calm     88% 0.0 mm 0 W/m2
18:39 13.1 °C 11.2 °C 1013.2 hPa Calm     88% 0.0 mm 0 W/m2
18:44 13.1 °C 11.2 °C 1013.2 hPa Calm     88% 0.0 mm 0 W/m2
18:49 13 °C 11.2 °C 1013.2 hPa Calm   22.5 km/h 89% 0.0 mm 0 W/m2
18:54 13 °C 11.2 °C 1013.2 hPa Calm     89% 0.0 mm 0 W/m2
18:59 12.9 °C 11 °C 1013.2 hPa Calm   22.5 km/h 88% 0.0 mm 0 W/m2
19:04 12.9 °C 11 °C 1013.2 hPa Calm     88% 0.0 mm 0 W/m2
19:09 12.9 °C 11.1 °C 1013.5 hPa Calm   22.5 km/h 89% 0.0 mm 0 W/m2
19:14 12.8 °C 10.9 °C 1013.2 hPa Calm   3.2 km/h 88% 0.0 mm 0 W/m2
19:20 12.8 °C 10.9 °C 1013.2 hPa Calm     88% 0.0 mm 0 W/m2
19:25 12.8 °C 10.9 °C 1013.2 hPa Calm     88% 0.0 mm 0 W/m2
19:30 12.8 °C 10.9 °C 1013.5 hPa Calm   3.2 km/h 88% 0.0 mm 0 W/m2
19:35 12.8 °C 10.9 °C 1013.5 hPa Calm     88% 0.0 mm 0 W/m2
19:40 12.7 °C 10.8 °C 1013.5 hPa Calm     88% 0.0 mm 0 W/m2
19:45 12.7 °C 10.8 °C 1013.5 hPa Calm     88% 0.0 mm 0 W/m2
19:50 12.7 °C 10.8 °C 1013.9 hPa Calm     88% 0.0 mm 0 W/m2
19:55 12.7 °C 10.9 °C 1013.9 hPa Calm     89% 0.0 mm 0 W/m2
20:00 12.6 °C 10.8 °C 1013.9 hPa Calm     89% 0.0 mm 0 W/m2
20:05 12.4 °C 10.6 °C 1013.9 hPa Calm     89% 0.0 mm 0 W/m2
20:10 12.3 °C 10.7 °C 1013.9 hPa Calm     90% 0.2 mm 0 W/m2
20:15 12.2 °C 10.8 °C 1014.2 hPa Calm     91% 0.2 mm 0 W/m2
20:20 12.1 °C 10.7 °C 1014.2 hPa Calm     91% 0.2 mm 0 W/m2
20:25 12 °C 10.6 °C 1013.9 hPa Calm     91% 0.5 mm 0 W/m2
20:30 11.8 °C 10.4 °C 1014.2 hPa Calm     91% 0.5 mm 0 W/m2
20:35 11.8 °C 10.4 °C 1013.9 hPa Calm     91% 0.5 mm 0 W/m2
20:40 11.7 °C 10.3 °C 1014.2 hPa Calm     91% 0.5 mm 0 W/m2
20:45 11.7 °C 10.3 °C 1014.2 hPa Calm     91% 0.5 mm 0 W/m2
20:50 11.6 °C 10.2 °C 1014.2 hPa Calm     91% 0.5 mm 0 W/m2
20:55 11.4 °C 10 °C 1013.9 hPa Calm     91% 0.5 mm 0 W/m2
21:00 11.3 °C 9.9 °C 1014.2 hPa Calm     91% 0.5 mm 0 W/m2
21:05 11.2 °C 9.9 °C 1014.2 hPa Calm     92% 0.5 mm 0 W/m2
21:10 11.1 °C 9.7 °C 1014.2 hPa Calm     91% 0.2 mm 0 W/m2
21:15 11.1 °C 9.7 °C 1014.2 hPa Calm     91% 0.2 mm 0 W/m2
21:20 10.9 °C 9.5 °C 1014.2 hPa Calm     91% 0.5 mm 0 W/m2
21:25 10.8 °C 9.2 °C 1014.2 hPa Calm     90% 0.2 mm 0 W/m2
21:30 10.8 °C 9.2 °C 1014.2 hPa Calm     90% 0.2 mm 0 W/m2
21:35 10.7 °C 9.1 °C 1014.2 hPa Calm     90% 0.2 mm 0 W/m2
21:40 10.7 °C 9.1 °C 1014.2 hPa Calm     90% 0.5 mm 0 W/m2
21:45 10.6 °C 9.2 °C 1014.2 hPa Calm     91% 0.5 mm 0 W/m2
21:50 10.6 °C 9.2 °C 1014.2 hPa Calm     91% 0.5 mm 0 W/m2
21:56 10.6 °C 9.4 °C 1014.2 hPa Calm     92% 0.5 mm 0 W/m2
22:01 10.6 °C 9.4 °C 1014.2 hPa Calm     92% 0.5 mm 0 W/m2
22:06 10.6 °C 9.4 °C 1014.2 hPa Calm     92% 0.5 mm 0 W/m2
22:11 10.6 °C 9.4 °C 1014.2 hPa Calm     92% 0.5 mm 0 W/m2
22:16 10.6 °C 9.4 °C 1013.9 hPa Calm     92% 0.5 mm 0 W/m2
22:21 10.6 °C 9.4 °C 1014.2 hPa Calm     92% 0.5 mm 0 W/m2
22:26 10.6 °C 9.4 °C 1014.2 hPa Calm     92% 0.5 mm 0 W/m2
22:31 10.6 °C 9.4 °C 1013.9 hPa Calm     92% 0.5 mm 0 W/m2
22:36 10.5 °C 9.3 °C 1014.2 hPa Calm     92% 0.5 mm 0 W/m2
22:41 10.4 °C 9.2 °C 1014.2 hPa Calm     92% 0.5 mm 0 W/m2
22:46 10.4 °C 9.2 °C 1014.2 hPa Calm     92% 0.5 mm 0 W/m2
22:51 10.3 °C 9.1 °C 1014.2 hPa Calm     92% 0.5 mm 0 W/m2
22:56 10.3 °C 9.2 °C 1014.2 hPa Calm     93% 0.2 mm 0 W/m2
23:02 10.3 °C 9.2 °C 1014.2 hPa Calm     93% 0.2 mm 0 W/m2
23:07 10.2 °C 9.1 °C 1013.9 hPa Calm     93% 0.5 mm 0 W/m2
23:12 10.2 °C 9.1 °C 1013.9 hPa Calm     93% 0.5 mm 0 W/m2
23:17 10.2 °C 9.1 °C 1013.9 hPa Calm     93% 0.5 mm 0 W/m2
23:22 10.1 °C 9 °C 1013.5 hPa Calm     93% 0.5 mm 0 W/m2
23:27 10.1 °C 9 °C 1013.5 hPa Calm     93% 0.5 mm 0 W/m2
23:32 10.1 °C 9 °C 1013.5 hPa Calm     93% 0.5 mm 0 W/m2
23:37 10 °C 8.8 °C 1013.5 hPa Calm     92% 0.2 mm 0 W/m2
23:42 10 °C 8.8 °C 1013.5 hPa Calm     92% 0.2 mm 0 W/m2
23:47 9.9 °C 8.8 °C 1013.5 hPa Calm     93% 0.2 mm 0 W/m2
23:52 9.9 °C 8.8 °C 1013.5 hPa Calm     93% 0.2 mm 0 W/m2
23:57 9.9 °C 8.8 °C 1013.9 hPa Calm     93% 0.2 mm 0 W/m2
Juneau County Weather
Compliments of Weather Underground - 4 mb